メインページ
METAR-TAF:

METAR-TAF

空港 :

プンタアレナス, チリ

緯度: 53-00S, 経度: 070-51W, 海抜: 37m

現時点の気象観測

当レポートは16分前の06:00(UTC)に作成
無風
気温 5°C
湿度 93%
気圧 1022 hPa
視程: 2000m
高度300ftの雲はほとんどない

METAR: SCCI 280600Z 00000KT 8000 2000S BR FEW003 05/04 Q1022 NOSIG

時間: 03:16 (06:16 UTC)

予報

当レポートは1時間38分前の04:38(UTC)に作成
予報は28日の 06時(UTC)から 29日の 06時(UTC)まで有効
の風 5kt
視程: 7000m
高度800ftの雲は散在している
散在霧
28日の 06時(UTC)から 28日の 12時(UTC)まで一時的に
変向風 2kt
視程: 2000m
高度400ftの千切れ雲あり
散在霧
28日の 12時(UTC)から 28日の 14時(UTC)まで徐々に
視程10km以上
高度1500ftの雲はほとんどない
28日の 16時(UTC)から 28日の 18時(UTC)まで徐々に
西/北西の風 8kt
高度4000ftの雲はほとんどない
28日の 19時(UTC)から 28日の 21時(UTC)まで徐々に
西の風 8kt

TAF: SCCI 280438Z 2806/2906 36005KT 7000 BCFG SCT008 TN05/2810Z TX16/2818Z TEMPO 2806/2812 VRB02KT 2000 BCFG BKN004 BECMG 2812/2814 9999 NSW FEW015 BECMG 2816/2818 30008KT FEW040 BECMG 2819/2821 27008KT

4,000以上の空港の気象観測と天気予報(METAR報とTAF報)

利用可能な観測所は地図上に黄色い丸と赤い丸で示す。

丸の上にカーソルを重ねると観測所名を参照できる。

次にクリックすると気象観測と天気予報を参照できる。

マップの切り替え:黒色「×」印の緑ボタンをクリックして拡大、「-」印の緑ボタンをクリックして縮小、緑色の三角印をクリックして隣りの地図に切り替え


METAR-TAF: